UUOO/VOZ METAR and TAF weather

Enter ICAO airport designator
Station Type Date Time Source
UUOO METAR 2022/05/23 13:30 UTC NOAA

UUOO 231330Z 30004MPS CAVOK 12/M01 Q1005 R30/010070 NOSIG RMK QFE740


Station Type Date Time Source
UUOO Decoded METAR 2022/05/23 13:30 UTC NOAA

Voronez, Russia (UUOO) 51-39N 039-15E 104M
May 23, 2022 - 09:30 AM EDT / 2022.05.23 1330 UTC
Wind: from the WNW (300 degrees) at 9 MPH (8 KT):0
Visibility: greater than 7 mile(s):0
Temperature: 53 F (12 C)
Dew Point: 30 F (-1 C)
Relative Humidity: 40%
Pressure (altimeter): 29.68 in. Hg (1005 hPa)
ob: UUOO 231330Z 30004MPS CAVOK 12/M01 Q1005 R30/010070 NOSIG RMK QFE740
cycle: 13

Station Type Date Time Source
UUOO TAF 2019/08/12 03:33 UTC NOAA

TAF COR TAF COR UUOO 120159 1203/1212 31003MPS CAVOK

Example: see airport list